createdAt,value
2017-07-21T00:00:01.042Z,1.93
2017-07-21T00:02:29.306Z,1.90
2017-07-21T00:04:57.574Z,2.10
2017-07-21T00:07:26.648Z,1.80
2017-07-21T00:09:54.975Z,1.70
2017-07-21T00:12:24.043Z,1.90
2017-07-21T00:14:52.302Z,1.97
2017-07-21T00:17:20.632Z,2.20
2017-07-21T00:19:48.961Z,1.57
2017-07-21T00:22:17.233Z,1.57
2017-07-21T00:24:45.525Z,2.20
2017-07-21T00:27:13.781Z,2.30
2017-07-21T00:29:42.065Z,1.50
2017-07-21T00:32:10.311Z,2.17
2017-07-21T00:34:38.661Z,2.13
2017-07-21T00:37:07.770Z,2.63
2017-07-21T00:39:36.820Z,2.27
2017-07-21T00:42:05.072Z,2.30
2017-07-21T00:44:33.320Z,1.87
2017-07-21T00:47:01.633Z,2.40
2017-07-21T00:49:29.909Z,2.17
2017-07-21T00:51:58.244Z,2.23
2017-07-21T00:54:26.588Z,2.03
2017-07-21T00:56:54.928Z,1.93
2017-07-21T00:59:23.236Z,1.90
2017-07-21T01:01:51.461Z,1.97
2017-07-21T01:04:19.705Z,2.03
2017-07-21T01:06:48.082Z,1.93
2017-07-21T01:09:16.366Z,1.90
2017-07-21T01:11:44.627Z,1.90
2017-07-21T01:14:13.715Z,1.93
2017-07-21T01:16:42.061Z,2.03
2017-07-21T01:19:10.307Z,2.10
2017-07-21T01:21:38.618Z,1.87
2017-07-21T01:24:06.955Z,1.87
2017-07-21T01:26:35.225Z,1.70
2017-07-21T01:29:03.477Z,1.80
2017-07-21T01:31:31.875Z,2.20
2017-07-21T01:34:00.165Z,2.10
2017-07-21T01:36:28.561Z,1.53
2017-07-21T01:38:56.802Z,2.13
2017-07-21T01:41:25.070Z,2.10
2017-07-21T01:43:53.369Z,1.80
2017-07-21T01:46:21.662Z,1.77
2017-07-21T01:48:49.970Z,1.80
2017-07-21T01:51:18.241Z,2.67
2017-07-21T01:53:46.568Z,2.30
2017-07-21T01:56:14.964Z,1.83
2017-07-21T01:58:43.219Z,2.20
2017-07-21T02:01:11.685Z,2.17
2017-07-21T02:03:39.979Z,2.40
2017-07-21T02:06:08.262Z,2.20
2017-07-21T02:08:36.617Z,2.17
2017-07-21T02:11:04.972Z,2.67
2017-07-21T02:13:33.314Z,2.47
2017-07-21T02:16:01.580Z,2.47
2017-07-21T02:18:29.892Z,1.90
2017-07-21T02:20:58.925Z,2.27
2017-07-21T02:23:27.240Z,2.10
2017-07-21T02:25:55.509Z,2.27
2017-07-21T02:28:23.796Z,2.43
2017-07-21T02:30:52.072Z,2.60
2017-07-21T02:33:20.359Z,2.83
2017-07-21T02:35:48.602Z,3.00
2017-07-21T02:38:16.920Z,2.80
2017-07-21T02:40:45.988Z,2.77
2017-07-21T02:43:14.417Z,2.50
2017-07-21T02:45:42.688Z,3.00
2017-07-21T02:48:11.053Z,3.17
2017-07-21T02:50:40.094Z,2.50
2017-07-21T02:53:08.405Z,2.83
2017-07-21T02:55:36.891Z,2.53
2017-07-21T02:58:05.126Z,2.90
2017-07-21T03:00:33.461Z,3.00
2017-07-21T03:03:01.788Z,3.23
2017-07-21T03:05:30.061Z,2.80
2017-07-21T03:07:58.421Z,3.30
2017-07-21T03:10:26.706Z,3.20
2017-07-21T03:12:55.829Z,3.13
2017-07-21T03:15:24.127Z,3.90
2017-07-21T03:17:52.448Z,3.83
2017-07-21T03:20:20.729Z,4.13
2017-07-21T03:23:01.030Z,5.03
2017-07-21T03:25:30.208Z,5.03
2017-07-21T03:27:58.653Z,6.03
2017-07-21T03:30:26.923Z,4.90
2017-07-21T03:32:56.121Z,5.17
2017-07-21T03:35:24.416Z,5.37
2017-07-21T03:37:52.749Z,6.23
2017-07-21T03:40:21.089Z,4.63
2017-07-21T03:42:49.485Z,3.60
2017-07-21T03:45:17.869Z,3.87
2017-07-21T03:47:46.267Z,3.30
2017-07-21T03:50:15.379Z,3.30
2017-07-21T03:52:43.728Z,2.90
2017-07-21T03:55:12.160Z,3.50
2017-07-21T03:57:40.640Z,3.23
2017-07-21T04:00:09.054Z,3.20
2017-07-21T04:02:37.433Z,3.90
2017-07-21T04:05:05.839Z,3.47
2017-07-21T04:07:34.209Z,4.00
2017-07-21T04:10:02.634Z,4.20
2017-07-21T04:12:30.988Z,4.03
2017-07-21T04:15:04.197Z,4.70
2017-07-21T04:17:32.542Z,4.10
2017-07-21T04:20:07.710Z,4.07
2017-07-21T04:22:36.090Z,4.33
2017-07-21T04:25:04.599Z,3.50
2017-07-21T04:27:32.916Z,3.90
2017-07-21T04:30:01.513Z,3.77
2017-07-21T04:32:29.970Z,4.13
2017-07-21T04:34:59.184Z,4.60
2017-07-21T04:37:28.514Z,4.30
2017-07-21T04:39:56.852Z,9.43
2017-07-21T04:42:30.144Z,5.70
2017-07-21T04:44:58.585Z,4.53
2017-07-21T04:47:28.002Z,6.20
2017-07-21T04:49:56.225Z,4.77
2017-07-21T04:52:28.957Z,4.20
2017-07-21T04:54:57.288Z,4.63
2017-07-21T04:57:29.742Z,3.90
2017-07-21T04:59:58.045Z,4.43
2017-07-21T05:02:26.545Z,4.70
2017-07-21T05:04:54.879Z,4.23
2017-07-21T05:07:34.365Z,4.80
2017-07-21T05:10:03.707Z,4.10
2017-07-21T05:12:36.978Z,4.27
2017-07-21T05:15:06.132Z,3.50
2017-07-21T05:17:34.391Z,4.13
2017-07-21T05:20:02.953Z,3.30
2017-07-21T05:22:31.245Z,3.27
2017-07-21T05:24:59.514Z,3.47
2017-07-21T05:27:27.770Z,3.50
2017-07-21T05:29:56.020Z,2.90
2017-07-21T05:32:24.309Z,2.97
2017-07-21T05:34:52.645Z,2.87
2017-07-21T05:37:20.910Z,3.27
2017-07-21T05:39:49.145Z,3.03
2017-07-21T05:42:17.394Z,2.90
2017-07-21T05:44:45.709Z,2.57
2017-07-21T05:47:17.050Z,3.13
2017-07-21T05:49:46.124Z,2.30
2017-07-21T05:52:21.224Z,2.40
2017-07-21T05:54:49.569Z,2.60
2017-07-21T05:57:17.829Z,3.10
2017-07-21T05:59:46.089Z,2.70
2017-07-21T06:02:15.139Z,3.80
2017-07-21T06:05:06.154Z,4.13
2017-07-21T06:07:34.397Z,3.10
2017-07-21T06:10:02.677Z,3.33
2017-07-21T06:12:32.977Z,2.90
2017-07-21T06:15:02.313Z,3.20
2017-07-21T06:17:30.641Z,3.00
2017-07-21T06:19:59.711Z,3.10
2017-07-21T06:22:28.004Z,3.30
2017-07-21T06:24:57.037Z,2.63
2017-07-21T06:27:28.361Z,2.93
2017-07-21T06:29:56.671Z,2.80
2017-07-21T06:32:33.965Z,4.93
2017-07-21T06:35:02.209Z,4.37
2017-07-21T06:37:30.489Z,2.40
2017-07-21T06:40:17.308Z,2.67
2017-07-21T06:42:45.561Z,2.50
2017-07-21T06:45:17.770Z,2.70
2017-07-21T06:47:46.013Z,3.13
2017-07-21T06:50:23.190Z,2.53
2017-07-21T06:52:51.467Z,3.03
2017-07-21T06:55:19.754Z,6.60
2017-07-21T06:57:48.008Z,12.00
2017-07-21T07:00:20.108Z,3.23
2017-07-21T07:02:48.382Z,3.00
2017-07-21T07:05:16.681Z,2.60
2017-07-21T07:07:45.009Z,1.77
2017-07-21T07:10:13.341Z,2.40
2017-07-21T07:12:41.593Z,2.97
2017-07-21T07:15:09.896Z,2.07
2017-07-21T07:17:38.192Z,2.10
2017-07-21T07:20:06.478Z,2.27
2017-07-21T07:22:34.892Z,2.30
2017-07-21T07:25:03.132Z,2.70
2017-07-21T07:27:32.170Z,2.07
2017-07-21T07:30:00.424Z,2.73
2017-07-21T07:32:28.771Z,2.50
2017-07-21T07:34:57.779Z,2.50
2017-07-21T07:37:26.122Z,2.33
2017-07-21T07:39:54.397Z,1.90
2017-07-21T07:42:22.677Z,1.80
2017-07-21T07:44:50.923Z,2.00
2017-07-21T07:47:19.201Z,2.00
2017-07-21T07:49:47.448Z,2.23
2017-07-21T07:52:15.852Z,2.37
2017-07-21T07:54:44.109Z,2.60
2017-07-21T07:57:12.545Z,1.80
2017-07-21T07:59:41.673Z,1.93
2017-07-21T08:02:09.953Z,2.00
2017-07-21T08:04:38.223Z,1.60
2017-07-21T08:07:06.540Z,1.83
2017-07-21T08:09:34.839Z,1.90
2017-07-21T08:12:03.162Z,2.50
2017-07-21T08:14:31.433Z,2.17
2017-07-21T08:16:59.720Z,2.30
2017-07-21T08:19:28.199Z,2.20
2017-07-21T08:21:56.629Z,2.17
2017-07-21T08:24:24.891Z,1.80
2017-07-21T08:26:53.241Z,2.20
2017-07-21T08:29:21.561Z,1.80
2017-07-21T08:31:50.694Z,2.03
2017-07-21T08:34:19.068Z,1.60
2017-07-21T08:36:47.513Z,1.73
2017-07-21T08:39:16.626Z,1.73
2017-07-21T08:41:45.112Z,1.73
2017-07-21T08:44:13.518Z,1.60
2017-07-21T08:46:41.861Z,2.07
2017-07-21T08:49:10.185Z,1.30
2017-07-21T08:51:38.704Z,1.73
2017-07-21T08:54:07.165Z,2.20
2017-07-21T08:56:36.225Z,2.00
2017-07-21T08:59:04.572Z,1.47
2017-07-21T09:01:32.961Z,1.50
2017-07-21T09:04:01.319Z,2.30
2017-07-21T09:06:29.709Z,4.00
2017-07-21T09:08:58.064Z,2.90
2017-07-21T09:11:27.101Z,2.43
2017-07-21T09:13:55.378Z,2.00
2017-07-21T09:16:23.636Z,2.33
2017-07-21T09:18:51.932Z,2.23
2017-07-21T09:21:20.289Z,2.07
2017-07-21T09:23:48.585Z,2.00
2017-07-21T09:26:16.870Z,1.83
2017-07-21T09:28:46.077Z,1.97
2017-07-21T09:31:14.385Z,1.80
2017-07-21T09:33:42.712Z,2.10
2017-07-21T09:36:11.081Z,2.57
2017-07-21T09:38:39.416Z,2.33
2017-07-21T09:41:07.821Z,2.00
2017-07-21T09:43:36.100Z,1.70
2017-07-21T09:46:04.421Z,2.03
2017-07-21T09:48:32.690Z,1.73
2017-07-21T09:51:00.986Z,2.10
2017-07-21T09:53:29.373Z,2.30
2017-07-21T09:55:57.708Z,1.80
2017-07-21T09:58:26.069Z,1.40
2017-07-21T10:00:54.373Z,1.80
2017-07-21T10:03:22.615Z,1.60
2017-07-21T10:05:50.961Z,1.97
2017-07-21T10:08:19.993Z,1.90
2017-07-21T10:10:48.433Z,1.97
2017-07-21T10:13:16.710Z,1.50
2017-07-21T10:15:45.829Z,2.23
2017-07-21T10:18:14.106Z,1.40
2017-07-21T10:20:42.420Z,1.97
2017-07-21T10:23:10.757Z,2.07
2017-07-21T10:25:39.038Z,1.50
2017-07-21T10:28:07.336Z,1.83
2017-07-21T10:30:35.688Z,2.50
2017-07-21T10:33:04.011Z,1.70
2017-07-21T10:35:32.373Z,1.30
2017-07-21T10:38:00.625Z,1.93
2017-07-21T10:40:28.881Z,1.57
2017-07-21T10:42:57.197Z,1.40
2017-07-21T10:45:25.483Z,1.63
2017-07-21T10:47:53.716Z,2.33
2017-07-21T10:50:22.012Z,1.73
2017-07-21T10:52:50.290Z,1.53
2017-07-21T10:55:18.611Z,1.73
2017-07-21T10:57:46.950Z,2.10
2017-07-21T11:00:15.193Z,1.53
2017-07-21T11:02:43.538Z,1.63
2017-07-21T11:05:11.885Z,1.43
2017-07-21T11:07:40.225Z,1.73
2017-07-21T11:10:08.578Z,2.27
2017-07-21T11:12:36.854Z,1.63
2017-07-21T11:15:05.203Z,1.90
2017-07-21T11:17:33.484Z,1.30
2017-07-21T11:20:01.753Z,1.67
2017-07-21T11:22:30.146Z,1.43
2017-07-21T11:24:58.409Z,1.50
2017-07-21T11:27:26.759Z,1.80
2017-07-21T11:29:55.020Z,1.73
2017-07-21T11:32:23.271Z,1.57
2017-07-21T11:34:51.592Z,1.53
2017-07-21T11:37:19.857Z,1.50
2017-07-21T11:39:48.171Z,1.20
2017-07-21T11:42:16.447Z,3.00
2017-07-21T11:44:44.740Z,1.50
2017-07-21T11:47:13.806Z,1.60
2017-07-21T11:49:42.081Z,1.40
2017-07-21T11:52:10.459Z,1.70
2017-07-21T11:54:38.969Z,1.43
2017-07-21T11:57:08.000Z,1.30
2017-07-21T11:59:36.605Z,1.80
2017-07-21T12:02:06.678Z,2.53
2017-07-21T12:04:35.016Z,1.50
2017-07-21T12:07:03.449Z,1.60
2017-07-21T12:09:32.601Z,1.53
2017-07-21T12:12:00.944Z,1.67
2017-07-21T12:14:29.203Z,1.60
2017-07-21T12:16:57.977Z,2.17
2017-07-21T12:19:26.249Z,1.57
2017-07-21T12:21:55.349Z,1.60
2017-07-21T12:24:23.984Z,1.23
2017-07-21T12:26:52.589Z,1.80
2017-07-21T12:29:21.077Z,1.73
2017-07-21T12:31:49.624Z,1.50
2017-07-21T12:34:18.153Z,3.03
2017-07-21T12:36:46.478Z,2.10
2017-07-21T12:39:14.869Z,1.90
2017-07-21T12:41:43.578Z,2.07
2017-07-21T12:44:11.859Z,1.70
2017-07-21T12:46:40.410Z,1.87
2017-07-21T12:49:08.867Z,2.20
2017-07-21T12:51:37.198Z,1.63
2017-07-21T12:54:05.746Z,2.07
2017-07-21T12:56:34.145Z,1.87
2017-07-21T12:59:02.720Z,2.00
2017-07-21T13:01:31.492Z,1.77
2017-07-21T13:03:59.821Z,2.07
2017-07-21T13:06:28.277Z,2.23
2017-07-21T13:08:56.713Z,1.80
2017-07-21T13:11:25.001Z,1.63
2017-07-21T13:13:53.320Z,1.80
2017-07-21T13:16:21.750Z,1.97
2017-07-21T13:18:50.208Z,2.10
2017-07-21T13:21:18.633Z,2.00
2017-07-21T13:23:46.909Z,2.23
2017-07-21T13:26:16.068Z,1.93
2017-07-21T13:28:44.429Z,3.53
2017-07-21T13:31:12.927Z,4.07
2017-07-21T13:33:42.155Z,2.40
2017-07-21T13:36:10.529Z,3.73
2017-07-21T13:38:38.826Z,1.77
2017-07-21T13:41:07.161Z,1.90
2017-07-21T13:43:35.461Z,2.47
2017-07-21T13:46:03.861Z,2.10
2017-07-21T13:48:32.868Z,2.40
2017-07-21T13:51:01.121Z,1.70
2017-07-21T13:53:29.369Z,1.90
2017-07-21T13:55:58.538Z,2.10
2017-07-21T13:58:26.772Z,2.73
2017-07-21T14:00:55.950Z,2.23
2017-07-21T14:03:24.225Z,2.90
2017-07-21T14:05:53.713Z,2.23
2017-07-21T14:08:23.412Z,2.27
2017-07-21T14:10:52.941Z,1.80
2017-07-21T14:13:22.718Z,2.17
2017-07-21T14:15:51.921Z,2.23
2017-07-21T14:18:20.838Z,2.83
2017-07-21T14:20:49.780Z,2.43
2017-07-21T14:23:18.423Z,2.37
2017-07-21T14:25:47.123Z,2.40
2017-07-21T14:28:15.428Z,2.27
2017-07-21T14:30:43.821Z,2.10
2017-07-21T14:33:12.114Z,3.20
2017-07-21T14:35:41.233Z,2.50
2017-07-21T14:38:09.596Z,2.20
2017-07-21T14:40:37.856Z,2.60
2017-07-21T14:43:06.901Z,2.67
2017-07-21T14:45:35.164Z,2.57
2017-07-21T14:48:04.225Z,2.30
2017-07-21T14:50:32.467Z,2.40
2017-07-21T14:53:00.757Z,2.60
2017-07-21T14:55:29.034Z,2.80
2017-07-21T14:57:57.289Z,2.70
2017-07-21T15:00:25.666Z,2.80
2017-07-21T15:02:54.685Z,2.30
2017-07-21T15:05:23.121Z,2.07
2017-07-21T15:07:51.397Z,2.57
2017-07-21T15:10:19.683Z,2.30
2017-07-21T15:12:48.100Z,2.57
2017-07-21T15:15:16.473Z,2.50
2017-07-21T15:17:44.767Z,2.50
2017-07-21T15:20:13.035Z,2.93
2017-07-21T15:22:41.294Z,2.43
2017-07-21T15:25:09.817Z,2.07
2017-07-21T15:27:38.846Z,2.60
2017-07-21T15:30:07.113Z,2.47
2017-07-21T15:32:35.452Z,2.67
2017-07-21T15:35:03.749Z,2.40
2017-07-21T15:37:32.189Z,2.70
2017-07-21T15:40:01.349Z,2.33
2017-07-21T15:42:29.605Z,2.73
2017-07-21T15:44:57.981Z,2.57
2017-07-21T15:47:26.275Z,2.60
2017-07-21T15:49:54.617Z,2.57
2017-07-21T15:52:23.636Z,2.80
2017-07-21T15:54:51.905Z,2.93
2017-07-21T15:57:20.217Z,2.30
2017-07-21T15:59:48.529Z,2.70
2017-07-21T16:02:16.829Z,2.60
2017-07-21T16:04:45.096Z,2.60
2017-07-21T16:07:14.121Z,2.70
2017-07-21T16:09:42.693Z,3.03
2017-07-21T16:12:11.074Z,2.80
2017-07-21T16:14:39.321Z,3.10
2017-07-21T16:17:08.469Z,3.23
2017-07-21T16:19:36.807Z,3.13
2017-07-21T16:22:05.277Z,3.17
2017-07-21T16:24:33.612Z,2.93
2017-07-21T16:27:01.998Z,2.97
2017-07-21T16:29:30.402Z,3.80
2017-07-21T16:31:58.707Z,3.77
2017-07-21T16:34:27.125Z,4.20
2017-07-21T16:36:55.559Z,3.10
2017-07-21T16:39:24.009Z,3.37
2017-07-21T16:41:52.303Z,2.80
2017-07-21T16:44:20.645Z,2.90
2017-07-21T16:46:48.957Z,2.73
2017-07-21T16:49:17.240Z,3.60
2017-07-21T16:51:45.505Z,3.07
2017-07-21T16:54:13.892Z,2.83
2017-07-21T16:56:42.164Z,2.80
2017-07-21T16:59:10.572Z,2.93
2017-07-21T17:01:38.848Z,3.10
2017-07-21T17:04:07.192Z,2.87
2017-07-21T17:06:35.618Z,3.50
2017-07-21T17:09:03.857Z,3.30
2017-07-21T17:11:32.149Z,2.77
2017-07-21T17:14:00.389Z,3.43
2017-07-21T17:16:28.719Z,2.90
2017-07-21T17:18:56.968Z,2.90
2017-07-21T17:21:25.292Z,3.67
2017-07-21T17:23:54.369Z,3.03
2017-07-21T17:26:22.814Z,3.50
2017-07-21T17:28:51.097Z,3.03
2017-07-21T17:31:19.404Z,3.40
2017-07-21T17:33:47.721Z,2.90
2017-07-21T17:36:15.994Z,3.20
2017-07-21T17:38:44.257Z,3.60
2017-07-21T17:41:12.903Z,3.40
2017-07-21T17:43:41.178Z,3.70
2017-07-21T17:46:09.441Z,3.60
2017-07-21T17:48:37.867Z,3.40
2017-07-21T17:51:06.287Z,3.77
2017-07-21T17:53:34.632Z,3.80
2017-07-21T17:56:02.943Z,4.20
2017-07-21T17:58:31.199Z,4.07
2017-07-21T18:00:59.450Z,4.40
2017-07-21T18:03:28.466Z,3.87
2017-07-21T18:05:56.744Z,3.37
2017-07-21T18:08:25.261Z,3.13
2017-07-21T18:10:53.521Z,3.47
2017-07-21T18:13:21.774Z,3.40
2017-07-21T18:15:50.073Z,3.73
2017-07-21T18:18:18.339Z,3.60
2017-07-21T18:20:46.608Z,3.77
2017-07-21T18:23:14.848Z,4.20
2017-07-21T18:25:43.164Z,4.10
2017-07-21T18:28:11.400Z,3.73
2017-07-21T18:30:40.467Z,4.30
2017-07-21T18:33:08.758Z,4.70
2017-07-21T18:35:37.381Z,4.90
2017-07-21T18:38:05.789Z,4.87
2017-07-21T18:40:34.243Z,3.80
2017-07-21T18:43:02.593Z,3.60
2017-07-21T18:45:30.971Z,3.50
2017-07-21T18:48:00.322Z,3.80
2017-07-21T18:50:28.613Z,4.23
2017-07-21T18:52:57.061Z,3.50
2017-07-21T18:55:25.321Z,3.90
2017-07-21T18:57:53.672Z,4.50
2017-07-21T19:00:22.809Z,4.20
2017-07-21T19:02:51.060Z,5.00
2017-07-21T19:05:19.334Z,5.47
2017-07-21T19:07:47.625Z,4.90
2017-07-21T19:10:15.905Z,5.20
2017-07-21T19:12:44.173Z,5.07
2017-07-21T19:15:12.484Z,4.17
2017-07-21T19:17:40.729Z,4.43
2017-07-21T19:20:09.017Z,4.57
2017-07-21T19:22:37.380Z,4.47
2017-07-21T19:25:06.433Z,4.97
2017-07-21T19:27:34.694Z,4.93
2017-07-21T19:30:02.995Z,5.57
2017-07-21T19:32:31.345Z,5.33
2017-07-21T19:34:59.655Z,4.93
2017-07-21T19:37:27.947Z,5.80
2017-07-21T19:39:57.056Z,4.37
2017-07-21T19:42:25.334Z,4.27
2017-07-21T19:44:53.635Z,4.20
2017-07-21T19:47:21.873Z,5.60
2017-07-21T19:49:50.156Z,4.83
2017-07-21T19:52:18.434Z,4.77
2017-07-21T19:54:46.733Z,4.57
2017-07-21T19:57:15.939Z,4.90
2017-07-21T19:59:44.187Z,4.50
2017-07-21T20:02:12.521Z,4.73
2017-07-21T20:04:40.783Z,4.67
2017-07-21T20:07:09.097Z,5.60
2017-07-21T20:09:37.400Z,5.40
2017-07-21T20:12:05.694Z,4.67
2017-07-21T20:14:33.994Z,4.53
2017-07-21T20:17:02.249Z,4.67
2017-07-21T20:19:30.501Z,4.77
2017-07-21T20:21:58.790Z,4.57
2017-07-21T20:24:27.077Z,4.47
2017-07-21T20:26:55.388Z,4.53
2017-07-21T20:29:24.452Z,6.10
2017-07-21T20:31:52.725Z,5.80
2017-07-21T20:34:21.010Z,5.70
2017-07-21T20:36:49.267Z,5.10
2017-07-21T20:39:17.545Z,5.03
2017-07-21T20:41:45.797Z,6.13
2017-07-21T20:44:14.172Z,5.20
2017-07-21T20:46:42.410Z,4.47
2017-07-21T20:49:11.585Z,4.30
2017-07-21T20:51:39.850Z,5.03
2017-07-21T20:54:08.183Z,4.80
2017-07-21T20:56:36.428Z,4.80
2017-07-21T20:59:05.450Z,4.43
2017-07-21T21:01:33.971Z,5.07
2017-07-21T21:04:02.218Z,5.60
2017-07-21T21:06:30.454Z,4.57
2017-07-21T21:08:58.750Z,5.40
2017-07-21T21:11:27.231Z,4.57
2017-07-21T21:13:55.484Z,4.53
2017-07-21T21:16:25.569Z,4.40
2017-07-21T21:18:53.900Z,5.10
2017-07-21T21:21:22.199Z,4.30
2017-07-21T21:23:50.447Z,5.10
2017-07-21T21:26:18.931Z,5.00
2017-07-21T21:28:47.237Z,4.47
2017-07-21T21:31:15.469Z,4.53
2017-07-21T21:33:44.564Z,4.60
2017-07-21T21:36:13.596Z,5.10
2017-07-21T21:38:41.893Z,4.50
2017-07-21T21:41:10.143Z,4.07
2017-07-21T21:43:39.212Z,4.80
2017-07-21T21:46:07.600Z,3.67
2017-07-21T21:48:35.839Z,4.60
2017-07-21T21:51:04.071Z,4.77
2017-07-21T21:53:32.312Z,4.43
2017-07-21T21:56:01.422Z,4.20
2017-07-21T21:58:29.688Z,4.70
2017-07-21T22:00:57.951Z,4.77
2017-07-21T22:03:26.239Z,4.60
2017-07-21T22:05:55.249Z,5.03
2017-07-21T22:08:23.492Z,4.70
2017-07-21T22:10:51.833Z,4.53
2017-07-21T22:13:20.163Z,4.00
2017-07-21T22:15:55.225Z,4.87
2017-07-21T22:18:23.471Z,4.97
2017-07-21T22:20:51.761Z,6.07
2017-07-21T22:23:20.192Z,5.80
2017-07-21T22:25:48.581Z,5.13
2017-07-21T22:28:16.952Z,6.03
2017-07-21T22:30:45.252Z,5.10
2017-07-21T22:33:13.525Z,5.00
2017-07-21T22:35:41.901Z,5.07
2017-07-21T22:38:10.161Z,4.50
2017-07-21T22:40:38.405Z,4.10
2017-07-21T22:43:06.644Z,4.60
2017-07-21T22:45:34.953Z,5.23
2017-07-21T22:48:03.197Z,4.70
2017-07-21T22:50:31.477Z,4.90
2017-07-21T22:52:59.754Z,5.30
2017-07-21T22:55:27.992Z,5.33
2017-07-21T22:57:57.080Z,5.30
2017-07-21T23:00:25.337Z,6.30
2017-07-21T23:02:53.657Z,5.43
2017-07-21T23:05:21.966Z,5.83
2017-07-21T23:07:50.228Z,6.70
2017-07-21T23:10:18.481Z,5.63
2017-07-21T23:12:46.749Z,5.90
2017-07-21T23:15:15.010Z,6.07
2017-07-21T23:17:44.072Z,5.30
2017-07-21T23:20:12.312Z,4.97
2017-07-21T23:22:40.577Z,4.47
2017-07-21T23:25:08.823Z,6.10
2017-07-21T23:27:37.838Z,5.57
2017-07-21T23:30:06.250Z,4.90
2017-07-21T23:32:34.514Z,4.80
2017-07-21T23:35:02.776Z,4.93
2017-07-21T23:37:31.037Z,4.90
2017-07-21T23:39:59.307Z,4.00
2017-07-21T23:42:27.618Z,4.00
2017-07-21T23:44:55.892Z,4.37
2017-07-21T23:47:24.170Z,5.40
2017-07-21T23:49:52.417Z,4.70
2017-07-21T23:52:20.695Z,4.10
2017-07-21T23:54:48.937Z,4.37
2017-07-21T23:57:17.194Z,3.60
2017-07-21T23:59:45.438Z,3.90
